PAKT

Ketchikan International Airport

Ketchikan, Alaska, USA
PAKT 211734Z 2118/2218 14006KT P6SM SCT004 OVC010 TEMPO 2118/2119 BKN004 FM212000 VRB05KT P6SM FEW004 BKN015 FM212200 12008KT P6SM SCT015 BKN050 FM220900 32005KT P6SM BKN015 OVC025 AMD LTD TO CLD VIS AND WIND 2206/2215
Issued Valid From Valid To
Jun-21 @ 17:34 UTC
(38 minutes ago)
Jun-21 @ 18:00 UTC
(12 minutes ago)
Jun-22 @ 18:00 UTC
(in 24 hours)
Jun-21 @ 18:00 to Jun-21 @ 20:00
PAKT 211734Z 2118/2218 14006KT P6SM SCT004 OVC010
Wind Visibility Clouds
140° at 6 knots Greater than 6 miles
  • Scattered at 400' AGL
  • Overcast at 1,000' AGL
Temporary Jun-21 @ 18:00 to Jun-21 @ 19:00
TEMPO 2118/2119 BKN004
Clouds
  • Broken at 400' AGL
From Jun-21 @ 20:00 to Jun-21 @ 22:00
FM212000 VRB05KT P6SM FEW004 BKN015
Wind Visibility Clouds
Variable at 5 knots Greater than 6 miles
  • Few at 400' AGL
  • Broken at 1,500' AGL
From Jun-21 @ 22:00 to Jun-22 @ 09:00
FM212200 12008KT P6SM SCT015 BKN050
Wind Visibility Clouds
120° at 8 knots Greater than 6 miles
  • Scattered at 1,500' AGL
  • Broken at 5,000' AGL
From Jun-22 @ 09:00 to Jun-22 @ 18:00
FM220900 32005KT P6SM BKN015 OVC025 AMD LTD TO CLD VIS AND WIND 2206/2215
Wind Visibility Clouds
320° at 5 knots Greater than 6 miles
  • Broken at 1,500' AGL
  • Overcast at 2,500' AGL
PAKT 211734Z 2118/2218 14006KT P6SM SCT004 OVC010 TEMPO 2118/2119 BKN004 FM212000 VRB05KT P6SM FEW004 BKN015 FM212200 12008KT P6SM SCT015 BKN050 FM220900 32005KT P6SM BKN015 OVC025 AMD LTD TO CLD VIS AND WIND 2206/2215
Issued Jun-21 @ 17:34 UTC
(38 minutes ago)
Valid From Jun-21 @ 18:00 UTC
(12 minutes ago)
Valid To Jun-22 @ 18:00 UTC
(in 24 hours)
Jun-21 @ 18:00 - Jun-21 @ 20:00
Wind Visibility
140° at 6 knots Greater than 6 miles
Clouds
  • Scattered at 400' AGL
  • Overcast at 1,000' AGL
Temporary Jun-21 @ 18:00 - Jun-21 @ 19:00
Clouds
  • Broken at 400' AGL
From Jun-21 @ 20:00 - Jun-21 @ 22:00
Wind Visibility
Variable at 5 knots Greater than 6 miles
Clouds
  • Few at 400' AGL
  • Broken at 1,500' AGL
From Jun-21 @ 22:00 - Jun-22 @ 09:00
Wind Visibility
120° at 8 knots Greater than 6 miles
Clouds
  • Scattered at 1,500' AGL
  • Broken at 5,000' AGL
From Jun-22 @ 09:00 - Jun-22 @ 18:00
Wind Visibility
320° at 5 knots Greater than 6 miles
Clouds
  • Broken at 1,500' AGL
  • Overcast at 2,500' AGL